sensor_id;sensor_type;location;lat;lon;timestamp;pressure;altitude;pressure_sealevel;temperature;humidity
69247;BME280;56358;56.328;43.992;2022-09-06T00:00:31;100419.13;;;8.61;80.79
69247;BME280;56358;56.328;43.992;2022-09-06T00:02:34;100335.69;;;8.05;81.43
69247;BME280;56358;56.328;43.992;2022-09-06T00:04:35;100414.53;;;8.50;81.64
69247;BME280;56358;56.328;43.992;2022-09-06T00:06:36;100422.56;;;8.50;81.68
69247;BME280;56358;56.328;43.992;2022-09-06T00:08:37;100379.78;;;8.24;81.66
69247;BME280;56358;56.328;43.992;2022-09-06T00:10:38;100418.91;;;8.51;81.71
69247;BME280;56358;56.328;43.992;2022-09-06T00:12:38;100408.00;;;8.54;81.86
69247;BME280;56358;56.328;43.992;2022-09-06T00:14:39;100416.44;;;8.48;81.72
69247;BME280;56358;56.328;43.992;2022-09-06T00:16:40;100407.78;;;8.44;81.96
69247;BME280;56358;56.328;43.992;2022-09-06T00:18:41;100416.22;;;8.38;82.13
69247;BME280;56358;56.328;43.992;2022-09-06T00:20:42;100362.91;;;8.11;82.31
69247;BME280;56358;56.328;43.992;2022-09-06T00:22:43;100330.31;;;7.93;82.18
69247;BME280;56358;56.328;43.992;2022-09-06T00:24:43;100382.16;;;8.16;82.42
69247;BME280;56358;56.328;43.992;2022-09-06T00:26:44;100403.50;;;8.29;82.54
69247;BME280;56358;56.328;43.992;2022-09-06T00:28:45;100390.25;;;8.27;82.41
69247;BME280;56358;56.328;43.992;2022-09-06T00:30:46;100331.84;;;7.84;82.31
69247;BME280;56358;56.328;43.992;2022-09-06T00:32:46;100344.22;;;7.98;82.17
69247;BME280;56358;56.328;43.992;2022-09-06T00:34:47;100405.09;;;8.31;82.45
69247;BME280;56358;56.328;43.992;2022-09-06T00:36:48;100399.97;;;8.28;82.16
69247;BME280;56358;56.328;43.992;2022-09-06T00:38:48;100397.72;;;8.22;82.39
69247;BME280;56358;56.328;43.992;2022-09-06T00:40:49;100415.69;;;8.20;82.67
69247;BME280;56358;56.328;43.992;2022-09-06T00:42:50;100400.84;;;8.16;83.04
69247;BME280;56358;56.328;43.992;2022-09-06T00:44:51;100354.56;;;7.89;83.58
69247;BME280;56358;56.328;43.992;2022-09-06T00:46:53;100388.34;;;8.16;83.76
69247;BME280;56358;56.328;43.992;2022-09-06T00:49:01;100291.88;;;7.57;83.55
69247;BME280;56358;56.328;43.992;2022-09-06T00:51:04;100380.22;;;8.05;83.87
69247;BME280;56358;56.328;43.992;2022-09-06T00:53:06;100405.41;;;8.14;84.38
69247;BME280;56358;56.328;43.992;2022-09-06T00:55:08;100328.91;;;7.74;84.49
69247;BME280;56358;56.328;43.992;2022-09-06T00:57:09;100387.16;;;8.20;84.54
69247;BME280;56358;56.328;43.992;2022-09-06T00:59:10;100385.88;;;8.13;84.12
69247;BME280;56358;56.328;43.992;2022-09-06T01:01:11;100390.25;;;8.14;84.09
69247;BME280;56358;56.328;43.992;2022-09-06T01:03:12;100370.69;;;8.01;84.10
69247;BME280;56358;56.328;43.992;2022-09-06T01:05:13;100372.72;;;8.10;84.06
69247;BME280;56358;56.328;43.992;2022-09-06T01:15:19;100389.72;;;8.22;84.54
69247;BME280;56358;56.328;43.992;2022-09-06T01:27:11;100383.31;;;8.25;84.50
69247;BME280;56358;56.328;43.992;2022-09-06T01:31:43;100311.22;;;7.86;84.24
69247;BME280;56358;56.328;43.992;2022-09-06T01:35:58;100401.03;;;8.26;84.16
69247;BME280;56358;56.328;43.992;2022-09-06T01:38:00;100382.25;;;8.27;84.51
69247;BME280;56358;56.328;43.992;2022-09-06T01:40:02;100372.19;;;8.31;84.02
69247;BME280;56358;56.328;43.992;2022-09-06T01:42:11;100380.41;;;8.28;83.89
69247;BME280;56358;56.328;43.992;2022-09-06T01:44:12;100379.47;;;8.29;83.97
69247;BME280;56358;56.328;43.992;2022-09-06T01:55:35;100354.56;;;8.15;83.18
69247;BME280;56358;56.328;43.992;2022-09-06T02:00:11;100368.34;;;8.22;83.65
69247;BME280;56358;56.328;43.992;2022-09-06T02:04:30;100383.31;;;8.25;83.56
69247;BME280;56358;56.328;43.992;2022-09-06T02:06:40;100331.09;;;7.95;83.77
69247;BME280;56358;56.328;43.992;2022-09-06T02:08:48;100365.59;;;8.11;83.13
69247;BME280;56358;56.328;43.992;2022-09-06T02:10:59;100376.59;;;8.19;83.43
69247;BME280;56358;56.328;43.992;2022-09-06T02:13:03;100289.75;;;7.75;83.59
69247;BME280;56358;56.328;43.992;2022-09-06T02:15:27;100374.13;;;8.29;83.10
69247;BME280;56358;56.328;43.992;2022-09-06T02:17:31;100387.59;;;8.27;83.91
69247;BME280;56358;56.328;43.992;2022-09-06T02:20:08;100371.31;;;8.30;83.83
69247;BME280;56358;56.328;43.992;2022-09-06T02:22:11;100360.22;;;8.23;83.37
69247;BME280;56358;56.328;43.992;2022-09-06T02:24:27;100366.22;;;8.27;83.82
69247;BME280;56358;56.328;43.992;2022-09-06T02:26:32;100357.56;;;8.23;83.93
69247;BME280;56358;56.328;43.992;2022-09-06T02:28:34;100298.28;;;7.93;83.56
69247;BME280;56358;56.328;43.992;2022-09-06T02:30:38;100380.97;;;8.46;83.30
69247;BME280;56358;56.328;43.992;2022-09-06T02:32:48;100380.19;;;8.44;83.42
69247;BME280;56358;56.328;43.992;2022-09-06T02:34:53;100372.63;;;8.37;82.88
69247;BME280;56358;56.328;43.992;2022-09-06T02:36:54;100387.47;;;8.42;83.05
69247;BME280;56358;56.328;43.992;2022-09-06T02:38:58;100383.94;;;8.41;82.53
69247;BME280;56358;56.328;43.992;2022-09-06T02:41:00;100378.81;;;8.38;82.90
69247;BME280;56358;56.328;43.992;2022-09-06T02:43:02;100387.06;;;8.35;82.75
69247;BME280;56358;56.328;43.992;2022-09-06T02:45:03;100380.31;;;8.42;83.04
69247;BME280;56358;56.328;43.992;2022-09-06T02:47:05;100372.63;;;8.37;82.93
69247;BME280;56358;56.328;43.992;2022-09-06T02:49:06;100383.09;;;8.41;82.84
69247;BME280;56358;56.328;43.992;2022-09-06T02:51:09;100386.59;;;8.41;82.85
69247;BME280;56358;56.328;43.992;2022-09-06T02:53:12;100380.75;;;8.49;82.84
69247;BME280;56358;56.328;43.992;2022-09-06T02:55:13;100379.56;;;8.53;82.67
69247;BME280;56358;56.328;43.992;2022-09-06T02:57:14;100393.69;;;8.55;82.37
69247;BME280;56358;56.328;43.992;2022-09-06T02:59:15;100385.44;;;8.58;82.44
69247;BME280;56358;56.328;43.992;2022-09-06T03:01:15;100368.34;;;8.48;82.33
69247;BME280;56358;56.328;43.992;2022-09-06T03:03:16;100384.38;;;8.61;82.57
69247;BME280;56358;56.328;43.992;2022-09-06T03:05:17;100381.41;;;8.52;82.68
69247;BME280;56358;56.328;43.992;2022-09-06T03:07:17;100383.53;;;8.60;82.62
69247;BME280;56358;56.328;43.992;2022-09-06T03:09:19;100327.88;;;8.28;82.76
69247;BME280;56358;56.328;43.992;2022-09-06T03:11:20;100389.72;;;8.74;82.39
69247;BME280;56358;56.328;43.992;2022-09-06T03:13:22;100392.91;;;8.79;82.21
69247;BME280;56358;56.328;43.992;2022-09-06T03:15:23;100372.28;;;8.68;82.05
69247;BME280;56358;56.328;43.992;2022-09-06T03:17:24;100294.44;;;8.22;81.51
69247;BME280;56358;56.328;43.992;2022-09-06T03:19:24;100394.47;;;8.81;81.30
69247;BME280;56358;56.328;43.992;2022-09-06T03:21:25;100378.38;;;8.70;80.85
69247;BME280;56358;56.328;43.992;2022-09-06T03:23:27;100403.59;;;8.79;80.91
69247;BME280;56358;56.328;43.992;2022-09-06T03:25:28;100355.22;;;8.58;81.11
69247;BME280;56358;56.328;43.992;2022-09-06T03:27:28;100389.06;;;8.83;81.51
69247;BME280;56358;56.328;43.992;2022-09-06T03:29:29;100302.22;;;8.26;80.82
69247;BME280;56358;56.328;43.992;2022-09-06T03:31:30;100385.75;;;8.79;80.54
69247;BME280;56358;56.328;43.992;2022-09-06T03:33:30;100248.09;;;7.98;80.30
69247;BME280;56358;56.328;43.992;2022-09-06T03:35:31;100392.44;;;8.85;80.66
69247;BME280;56358;56.328;43.992;2022-09-06T03:37:32;100367.66;;;8.83;80.85
69247;BME280;56358;56.328;43.992;2022-09-06T03:39:33;100392.44;;;8.98;80.63
69247;BME280;56358;56.328;43.992;2022-09-06T03:41:33;100397.03;;;8.96;79.80
69247;BME280;56358;56.328;43.992;2022-09-06T03:43:34;100381.44;;;8.89;79.44
69247;BME280;56358;56.328;43.992;2022-09-06T03:45:35;100387.41;;;8.93;79.39
69247;BME280;56358;56.328;43.992;2022-09-06T03:47:35;100399.09;;;8.92;79.96
69247;BME280;56358;56.328;43.992;2022-09-06T03:49:36;100364.25;;;8.68;79.96
69247;BME280;56358;56.328;43.992;2022-09-06T03:51:37;100395.66;;;8.90;80.36
69247;BME280;56358;56.328;43.992;2022-09-06T03:53:37;100395.88;;;8.87;80.78
69247;BME280;56358;56.328;43.992;2022-09-06T03:55:38;100399.94;;;8.80;80.91
69247;BME280;56358;56.328;43.992;2022-09-06T03:57:39;100391.09;;;8.79;81.11
69247;BME280;56358;56.328;43.992;2022-09-06T03:59:40;100391.19;;;8.78;81.41
69247;BME280;56358;56.328;43.992;2022-09-06T04:01:40;100396.13;;;8.71;81.69
69247;BME280;56358;56.328;43.992;2022-09-06T04:03:41;100390.97;;;8.68;81.95
69247;BME280;56358;56.328;43.992;2022-09-06T04:05:45;100388.66;;;8.63;82.72
69247;BME280;56358;56.328;43.992;2022-09-06T04:07:46;100390.66;;;8.72;82.55
69247;BME280;56358;56.328;43.992;2022-09-06T04:09:47;100388.84;;;8.73;82.39
69247;BME280;56358;56.328;43.992;2022-09-06T04:11:48;100393.75;;;8.79;81.33
69247;BME280;56358;56.328;43.992;2022-09-06T04:13:48;100356.59;;;8.50;80.85
69247;BME280;56358;56.328;43.992;2022-09-06T04:15:49;100398.34;;;8.77;81.37
69247;BME280;56358;56.328;43.992;2022-09-06T04:17:50;100394.59;;;8.80;80.51
69247;BME280;56358;56.328;43.992;2022-09-06T04:19:51;100390.66;;;8.72;80.24
69247;BME280;56358;56.328;43.992;2022-09-06T04:21:51;100399.75;;;8.83;80.07
69247;BME280;56358;56.328;43.992;2022-09-06T04:23:52;100305.44;;;8.31;79.10
69247;BME280;56358;56.328;43.992;2022-09-06T04:25:54;100361.69;;;8.66;78.28
69247;BME280;56358;56.328;43.992;2022-09-06T04:27:55;100389.75;;;8.98;77.96
69247;BME280;56358;56.328;43.992;2022-09-06T04:29:56;100370.41;;;8.94;77.89
69247;BME280;56358;56.328;43.992;2022-09-06T04:31:56;100284.88;;;8.44;77.69
69247;BME280;56358;56.328;43.992;2022-09-06T04:33:57;100402.50;;;9.18;77.29
69247;BME280;56358;56.328;43.992;2022-09-06T04:35:59;100381.75;;;9.22;77.22
69247;BME280;56358;56.328;43.992;2022-09-06T04:38:01;100312.88;;;8.88;76.65
69247;BME280;56358;56.328;43.992;2022-09-06T04:40:02;100374.97;;;9.29;76.53
69247;BME280;56358;56.328;43.992;2022-09-06T04:42:03;100338.03;;;9.10;76.61
69247;BME280;56358;56.328;43.992;2022-09-06T04:44:04;100380.59;;;9.37;76.22
69247;BME280;56358;56.328;43.992;2022-09-06T04:46:18;100384.03;;;9.39;76.99
69247;BME280;56358;56.328;43.992;2022-09-06T04:48:18;100381.75;;;9.46;76.25
69247;BME280;56358;56.328;43.992;2022-09-06T04:50:19;100384.06;;;9.51;75.25
69247;BME280;56358;56.328;43.992;2022-09-06T04:52:20;100368.00;;;9.51;75.26
69247;BME280;56358;56.328;43.992;2022-09-06T04:54:20;100383.50;;;9.59;74.71
69247;BME280;56358;56.328;43.992;2022-09-06T04:56:23;100378.78;;;9.62;75.18
69247;BME280;56358;56.328;43.992;2022-09-06T04:58:24;100379.22;;;9.56;74.52
69247;BME280;56358;56.328;43.992;2022-09-06T05:00:26;100387.50;;;9.53;74.52
69247;BME280;56358;56.328;43.992;2022-09-06T05:02:27;100382.13;;;9.53;74.84
69247;BME280;56358;56.328;43.992;2022-09-06T05:04:27;100383.16;;;9.63;74.62
69247;BME280;56358;56.328;43.992;2022-09-06T05:06:28;100372.91;;;9.57;74.06
69247;BME280;56358;56.328;43.992;2022-09-06T05:08:29;100381.69;;;9.59;73.73
69247;BME280;56358;56.328;43.992;2022-09-06T05:10:29;100304.22;;;9.09;73.77
69247;BME280;56358;56.328;43.992;2022-09-06T05:12:30;100385.44;;;9.56;73.99
69247;BME280;56358;56.328;43.992;2022-09-06T05:14:30;100378.31;;;9.44;74.03
69247;BME280;56358;56.328;43.992;2022-09-06T05:16:31;100373.28;;;9.52;73.79
69247;BME280;56358;56.328;43.992;2022-09-06T05:18:32;100389.66;;;9.48;74.27
69247;BME280;56358;56.328;43.992;2022-09-06T05:20:33;100390.84;;;9.44;74.86
69247;BME280;56358;56.328;43.992;2022-09-06T05:22:33;100387.91;;;9.35;74.64
69247;BME280;56358;56.328;43.992;2022-09-06T05:24:34;100355.56;;;9.14;75.13
69247;BME280;56358;56.328;43.992;2022-09-06T05:26:35;100378.41;;;9.31;74.78
69247;BME280;56358;56.328;43.992;2022-09-06T05:28:35;100378.50;;;9.30;75.36
69247;BME280;56358;56.328;43.992;2022-09-06T05:30:36;100307.78;;;8.85;74.97
69247;BME280;56358;56.328;43.992;2022-09-06T05:32:40;100364.09;;;9.19;75.44
69247;BME280;56358;56.328;43.992;2022-09-06T05:34:41;100398.19;;;9.29;75.32
69247;BME280;56358;56.328;43.992;2022-09-06T05:36:42;100378.00;;;9.25;75.30
69247;BME280;56358;56.328;43.992;2022-09-06T05:38:44;100380.69;;;9.25;75.16
69247;BME280;56358;56.328;43.992;2022-09-06T05:40:45;100390.81;;;9.32;75.32
69247;BME280;56358;56.328;43.992;2022-09-06T05:42:46;100393.81;;;9.28;75.58
69247;BME280;56358;56.328;43.992;2022-09-06T05:44:46;100260.81;;;8.57;75.21
69247;BME280;56358;56.328;43.992;2022-09-06T05:46:47;100383.88;;;9.30;74.53
69247;BME280;56358;56.328;43.992;2022-09-06T05:48:54;100326.31;;;9.00;74.37
69247;BME280;56358;56.328;43.992;2022-09-06T05:51:02;100399.72;;;9.44;74.24
69247;BME280;56358;56.328;43.992;2022-09-06T05:53:03;100361.47;;;9.31;74.69
69247;BME280;56358;56.328;43.992;2022-09-06T05:55:04;100384.88;;;9.40;75.04
69247;BME280;56358;56.328;43.992;2022-09-06T05:57:05;100348.19;;;9.18;74.00
69247;BME280;56358;56.328;43.992;2022-09-06T05:59:05;100390.47;;;9.37;74.08
69247;BME280;56358;56.328;43.992;2022-09-06T06:01:18;100398.75;;;9.45;74.86
69247;BME280;56358;56.328;43.992;2022-09-06T06:03:19;100408.44;;;9.35;75.28
69247;BME280;56358;56.328;43.992;2022-09-06T06:05:20;100379.91;;;9.22;75.90
69247;BME280;56358;56.328;43.992;2022-09-06T06:07:20;100380.69;;;9.25;75.72
69247;BME280;56358;56.328;43.992;2022-09-06T06:09:21;100396.16;;;9.32;75.39
69247;BME280;56358;56.328;43.992;2022-09-06T06:11:23;100313.31;;;8.82;74.95
69247;BME280;56358;56.328;43.992;2022-09-06T06:13:28;100405.03;;;9.33;74.93
69247;BME280;56358;56.328;43.992;2022-09-06T06:15:29;100404.50;;;9.28;75.80
69247;BME280;56358;56.328;43.992;2022-09-06T06:17:31;100399.41;;;9.25;75.51
69247;BME280;56358;56.328;43.992;2022-09-06T06:19:32;100381.06;;;9.07;76.39
69247;BME280;56358;56.328;43.992;2022-09-06T06:21:33;100378.72;;;9.02;77.71
69247;BME280;56358;56.328;43.992;2022-09-06T06:23:34;100389.88;;;8.96;77.63
69247;BME280;56358;56.328;43.992;2022-09-06T06:25:35;100395.31;;;8.95;77.25
69247;BME280;56358;56.328;43.992;2022-09-06T06:27:35;100361.94;;;8.63;77.31
69247;BME280;56358;56.328;43.992;2022-09-06T06:29:37;100380.38;;;8.79;77.86
69247;BME280;56358;56.328;43.992;2022-09-06T06:31:37;100341.97;;;8.56;78.66
69247;BME280;56358;56.328;43.992;2022-09-06T06:33:38;100412.88;;;8.86;77.36
69247;BME280;56358;56.328;43.992;2022-09-06T06:35:39;100412.66;;;8.89;77.03
69247;BME280;56358;56.328;43.992;2022-09-06T06:37:40;100407.53;;;8.86;77.12
69247;BME280;56358;56.328;43.992;2022-09-06T06:39:41;100376.66;;;8.69;77.78
69247;BME280;56358;56.328;43.992;2022-09-06T06:41:42;100386.81;;;8.77;77.30
69247;BME280;56358;56.328;43.992;2022-09-06T06:43:43;100404.63;;;8.89;77.05
69247;BME280;56358;56.328;43.992;2022-09-06T06:45:47;100411.69;;;8.90;75.88
69247;BME280;56358;56.328;43.992;2022-09-06T06:47:50;100411.16;;;8.98;75.44
69247;BME280;56358;56.328;43.992;2022-09-06T06:49:50;100415.06;;;9.05;74.77
69247;BME280;56358;56.328;43.992;2022-09-06T06:51:51;100402.47;;;8.94;74.73
69247;BME280;56358;56.328;43.992;2022-09-06T06:53:52;100404.91;;;9.10;74.44
69247;BME280;56358;56.328;43.992;2022-09-06T06:55:53;100324.41;;;8.65;73.46
69247;BME280;56358;56.328;43.992;2022-09-06T06:57:54;100387.38;;;9.06;74.19
69247;BME280;56358;56.328;43.992;2022-09-06T06:59:54;100398.34;;;9.14;73.51
69247;BME280;56358;56.328;43.992;2022-09-06T07:01:55;100402.28;;;9.21;73.63
69247;BME280;56358;56.328;43.992;2022-09-06T07:03:56;100398.53;;;9.24;73.44
69247;BME280;56358;56.328;43.992;2022-09-06T07:05:57;100403.00;;;9.36;73.06
69247;BME280;56358;56.328;43.992;2022-09-06T07:07:58;100409.03;;;9.27;73.31
69247;BME280;56358;56.328;43.992;2022-09-06T07:09:58;100383.91;;;9.17;72.93
69247;BME280;56358;56.328;43.992;2022-09-06T07:11:59;100415.56;;;9.23;74.07
69247;BME280;56358;56.328;43.992;2022-09-06T07:14:00;100396.03;;;9.10;73.96
69247;BME280;56358;56.328;43.992;2022-09-06T07:16:09;100416.53;;;9.22;74.21
69247;BME280;56358;56.328;43.992;2022-09-06T07:18:10;100399.31;;;9.13;74.09
69247;BME280;56358;56.328;43.992;2022-09-06T07:20:11;100395.50;;;9.04;73.93
69247;BME280;56358;56.328;43.992;2022-09-06T07:22:11;100410.47;;;9.07;74.25
69247;BME280;56358;56.328;43.992;2022-09-06T07:24:12;100409.72;;;9.05;74.12
69247;BME280;56358;56.328;43.992;2022-09-06T07:26:19;100427.66;;;9.16;73.54
69247;BME280;56358;56.328;43.992;2022-09-06T07:28:20;100399.97;;;9.04;72.98
69247;BME280;56358;56.328;43.992;2022-09-06T07:30:22;100334.84;;;8.68;72.82
69247;BME280;56358;56.328;43.992;2022-09-06T07:32:23;100406.16;;;9.17;72.13
69247;BME280;56358;56.328;43.992;2022-09-06T07:34:24;100323.22;;;8.69;71.93
69247;BME280;56358;56.328;43.992;2022-09-06T07:36:25;100412.94;;;9.34;72.01
69247;BME280;56358;56.328;43.992;2022-09-06T07:38:27;100394.84;;;9.38;71.60
69247;BME280;56358;56.328;43.992;2022-09-06T07:40:29;100415.84;;;9.55;71.08
69247;BME280;56358;56.328;43.992;2022-09-06T07:42:30;100380.78;;;9.47;70.63
69247;BME280;56358;56.328;43.992;2022-09-06T07:44:31;100354.91;;;9.35;69.42
69247;BME280;56358;56.328;43.992;2022-09-06T07:46:32;100420.41;;;9.66;68.79
69247;BME280;56358;56.328;43.992;2022-09-06T07:48:34;100397.16;;;9.67;69.03
69247;BME280;56358;56.328;43.992;2022-09-06T07:50:35;100381.44;;;9.62;68.88
69247;BME280;56358;56.328;43.992;2022-09-06T07:52:36;100403.00;;;9.72;68.76
69247;BME280;56358;56.328;43.992;2022-09-06T07:54:37;100299.75;;;9.10;69.00
69247;BME280;56358;56.328;43.992;2022-09-06T07:56:37;100399.25;;;9.75;68.88
69247;BME280;56358;56.328;43.992;2022-09-06T07:58:39;100391.97;;;9.77;68.56
69247;BME280;56358;56.328;43.992;2022-09-06T08:00:40;100386.72;;;9.75;68.53
69247;BME280;56358;56.328;43.992;2022-09-06T08:02:41;100400.25;;;9.85;67.85
69247;BME280;56358;56.328;43.992;2022-09-06T08:04:41;100388.22;;;9.79;67.61
69247;BME280;56358;56.328;43.992;2022-09-06T08:06:45;100394.41;;;9.91;67.14
69247;BME280;56358;56.328;43.992;2022-09-06T08:08:47;100393.84;;;9.99;66.21
69247;BME280;56358;56.328;43.992;2022-09-06T08:10:49;100413.34;;;10.01;66.01
69247;BME280;56358;56.328;43.992;2022-09-06T08:12:53;100403.22;;;10.04;65.22
69247;BME280;56358;56.328;43.992;2022-09-06T08:14:56;100409.34;;;10.06;65.55
69247;BME280;56358;56.328;43.992;2022-09-06T08:16:57;100376.06;;;9.98;66.13
69247;BME280;56358;56.328;43.992;2022-09-06T08:19:00;100395.31;;;10.03;65.85
69247;BME280;56358;56.328;43.992;2022-09-06T08:21:15;100330.94;;;9.57;65.71
69247;BME280;56358;56.328;43.992;2022-09-06T08:23:16;100375.91;;;9.77;66.20
69247;BME280;56358;56.328;43.992;2022-09-06T08:25:16;100385.44;;;9.92;66.30
69247;BME280;56358;56.328;43.992;2022-09-06T08:27:17;100384.84;;;10.00;66.54
69247;BME280;56358;56.328;43.992;2022-09-06T08:29:17;100382.28;;;10.10;66.33
69247;BME280;56358;56.328;43.992;2022-09-06T08:31:19;100385.22;;;10.18;65.80
69247;BME280;56358;56.328;43.992;2022-09-06T08:33:19;100385.50;;;10.26;65.57
69247;BME280;56358;56.328;43.992;2022-09-06T08:35:21;100379.41;;;10.24;64.42
69247;BME280;56358;56.328;43.992;2022-09-06T08:37:22;100364.78;;;10.17;63.74
69247;BME280;56358;56.328;43.992;2022-09-06T08:39:22;100380.16;;;10.26;63.64
69247;BME280;56358;56.328;43.992;2022-09-06T08:41:44;100376.72;;;10.24;64.33
69247;BME280;56358;56.328;43.992;2022-09-06T08:43:50;100305.31;;;9.78;64.29
69247;BME280;56358;56.328;43.992;2022-09-06T08:45:55;100394.25;;;10.17;62.87
69247;BME280;56358;56.328;43.992;2022-09-06T08:47:56;100380.38;;;10.12;63.16
69247;BME280;56358;56.328;43.992;2022-09-06T08:50:03;100374.50;;;10.06;63.51
69247;BME280;56358;56.328;43.992;2022-09-06T08:54:19;100387.81;;;10.19;62.93
69247;BME280;56358;56.328;43.992;2022-09-06T08:56:27;100376.34;;;10.17;62.56
69247;BME280;56358;56.328;43.992;2022-09-06T09:01:00;100382.72;;;10.39;62.05
69247;BME280;56358;56.328;43.992;2022-09-06T09:03:09;100399.56;;;10.41;60.34
69247;BME280;56358;56.328;43.992;2022-09-06T09:05:26;100382.47;;;10.42;60.63
69247;BME280;56358;56.328;43.992;2022-09-06T09:09:53;100383.97;;;10.69;59.48
69247;BME280;56358;56.328;43.992;2022-09-06T09:11:56;100377.63;;;10.81;59.42
69247;BME280;56358;56.328;43.992;2022-09-06T09:14:11;100378.47;;;10.93;59.43
69247;BME280;56358;56.328;43.992;2022-09-06T09:16:16;100281.25;;;10.57;59.19
69247;BME280;56358;56.328;43.992;2022-09-06T09:18:30;100365.72;;;11.18;58.70
69247;BME280;56358;56.328;43.992;2022-09-06T09:20:32;100372.03;;;11.28;58.58
69247;BME280;56358;56.328;43.992;2022-09-06T09:22:34;100369.69;;;11.35;57.68
69247;BME280;56358;56.328;43.992;2022-09-06T09:24:36;100366.06;;;11.24;57.99
69247;BME280;56358;56.328;43.992;2022-09-06T09:29:15;100364.34;;;11.23;56.69
69247;BME280;56358;56.328;43.992;2022-09-06T09:31:33;100280.34;;;10.79;57.11
69247;BME280;56358;56.328;43.992;2022-09-06T09:33:35;100364.19;;;11.36;56.82
69247;BME280;56358;56.328;43.992;2022-09-06T09:35:41;100364.53;;;11.43;56.33
69247;BME280;56358;56.328;43.992;2022-09-06T09:37:42;100350.63;;;11.38;55.35
69247;BME280;56358;56.328;43.992;2022-09-06T09:39:43;100345.34;;;11.48;55.17
69247;BME280;56358;56.328;43.992;2022-09-06T09:41:49;100370.47;;;11.79;54.60
69247;BME280;56358;56.328;43.992;2022-09-06T09:44:01;100347.31;;;11.99;53.49
69247;BME280;56358;56.328;43.992;2022-09-06T09:46:13;100367.75;;;12.43;51.86
69247;BME280;56358;56.328;43.992;2022-09-06T09:48:24;100363.59;;;12.60;50.95
69247;BME280;56358;56.328;43.992;2022-09-06T09:50:29;100356.28;;;12.81;50.85
69247;BME280;56358;56.328;43.992;2022-09-06T09:52:30;100275.00;;;12.68;51.07
69247;BME280;56358;56.328;43.992;2022-09-06T09:54:35;100319.75;;;12.88;50.59
69247;BME280;56358;56.328;43.992;2022-09-06T09:57:00;100327.44;;;12.93;50.28
69247;BME280;56358;56.328;43.992;2022-09-06T09:59:01;100351.22;;;12.88;50.08
69247;BME280;56358;56.328;43.992;2022-09-06T10:03:25;100302.00;;;12.16;50.09
69247;BME280;56358;56.328;43.992;2022-09-06T10:05:28;100333.22;;;12.38;50.35
69247;BME280;56358;56.328;43.992;2022-09-06T10:07:30;100341.75;;;12.53;49.94
69247;BME280;56358;56.328;43.992;2022-09-06T10:09:34;100342.81;;;12.71;50.11
69247;BME280;56358;56.328;43.992;2022-09-06T10:11:39;100336.22;;;12.95;49.67
69247;BME280;56358;56.328;43.992;2022-09-06T10:13:40;100332.97;;;13.01;49.57
69247;BME280;56358;56.328;43.992;2022-09-06T10:15:42;100260.94;;;12.45;49.07
69247;BME280;56358;56.328;43.992;2022-09-06T10:17:47;100335.44;;;12.73;49.71
69247;BME280;56358;56.328;43.992;2022-09-06T10:19:48;100342.75;;;12.52;50.14
69247;BME280;56358;56.328;43.992;2022-09-06T10:21:54;100299.66;;;12.01;50.50
69247;BME280;56358;56.328;43.992;2022-09-06T10:28:39;100346.34;;;11.68;53.29
69247;BME280;56358;56.328;43.992;2022-09-06T10:35:30;100327.25;;;11.29;53.15
69247;BME280;56358;56.328;43.992;2022-09-06T10:40:10;100303.31;;;11.04;53.50
69247;BME280;56358;56.328;43.992;2022-09-06T10:42:39;100337.03;;;11.18;53.54
69247;BME280;56358;56.328;43.992;2022-09-06T10:45:34;100337.44;;;11.14;53.53
69247;BME280;56358;56.328;43.992;2022-09-06T10:49:54;100337.56;;;11.12;52.72
69247;BME280;56358;56.328;43.992;2022-09-06T10:52:00;100270.09;;;10.84;52.25
69247;BME280;56358;56.328;43.992;2022-09-06T10:54:08;100341.41;;;11.31;52.01
69247;BME280;56358;56.328;43.992;2022-09-06T10:56:14;100327.78;;;11.44;51.04
69247;BME280;56358;56.328;43.992;2022-09-06T10:58:23;100323.19;;;11.67;50.69
69247;BME280;56358;56.328;43.992;2022-09-06T11:00:25;100328.88;;;11.95;48.28
69247;BME280;56358;56.328;43.992;2022-09-06T11:02:39;100318.53;;;12.11;47.66
69247;BME280;56358;56.328;43.992;2022-09-06T11:04:45;100316.34;;;12.36;47.77
69247;BME280;56358;56.328;43.992;2022-09-06T11:06:51;100316.13;;;12.49;47.00
69247;BME280;56358;56.328;43.992;2022-09-06T11:09:01;100316.84;;;12.51;46.80
69247;BME280;56358;56.328;43.992;2022-09-06T11:11:08;100313.78;;;12.65;46.53
69247;BME280;56358;56.328;43.992;2022-09-06T11:13:12;100308.00;;;12.80;46.76
69247;BME280;56358;56.328;43.992;2022-09-06T11:15:17;100245.53;;;12.56;46.24
69247;BME280;56358;56.328;43.992;2022-09-06T11:17:25;100303.66;;;12.98;45.45
69247;BME280;56358;56.328;43.992;2022-09-06T11:20:45;100311.31;;;13.13;45.77
69247;BME280;56358;56.328;43.992;2022-09-06T11:24:27;100300.97;;;13.08;45.18
69247;BME280;56358;56.328;43.992;2022-09-06T11:26:45;100311.84;;;12.87;47.05
69247;BME280;56358;56.328;43.992;2022-09-06T11:29:00;100166.56;;;11.97;46.96
69247;BME280;56358;56.328;43.992;2022-09-06T11:31:03;100297.78;;;12.64;46.82
69247;BME280;56358;56.328;43.992;2022-09-06T11:35:28;100300.53;;;12.43;48.02
69247;BME280;56358;56.328;43.992;2022-09-06T11:37:35;100295.94;;;12.23;49.23
69247;BME280;56358;56.328;43.992;2022-09-06T11:41:40;100298.34;;;12.27;49.07
69247;BME280;56358;56.328;43.992;2022-09-06T11:43:48;100292.84;;;12.28;48.41
69247;BME280;56358;56.328;43.992;2022-09-06T11:45:51;100287.16;;;12.21;48.28
69247;BME280;56358;56.328;43.992;2022-09-06T11:47:52;100287.06;;;13.03;47.66
69247;BME280;56358;56.328;43.992;2022-09-06T11:49:53;100277.03;;;14.11;44.78
69247;BME280;56358;56.328;43.992;2022-09-06T11:51:54;100268.19;;;15.02;42.61